createdAt,value
2023-12-12T00:01:27.858Z,100059.00
2023-12-12T00:03:01.233Z,100058.20
2023-12-12T00:04:33.045Z,100061.80
2023-12-12T00:06:08.421Z,100060.60
2023-12-12T00:07:40.927Z,100059.00
2023-12-12T00:09:13.046Z,100055.00
2023-12-12T00:10:44.822Z,100052.60
2023-12-12T00:12:16.678Z,100044.80
2023-12-12T00:13:48.436Z,100048.00
2023-12-12T00:15:20.162Z,100052.60
2023-12-12T00:16:52.813Z,100049.00
2023-12-12T00:18:24.901Z,100051.40
2023-12-12T00:19:56.821Z,100052.60
2023-12-12T00:21:28.659Z,100048.80
2023-12-12T00:23:00.967Z,100055.00
2023-12-12T00:24:32.715Z,100050.40
2023-12-12T00:26:04.791Z,100055.00
2023-12-12T00:27:39.810Z,100053.00
2023-12-12T00:29:11.577Z,100053.00
2023-12-12T00:30:43.473Z,100047.20
2023-12-12T00:32:15.163Z,100048.60
2023-12-12T00:33:47.025Z,100046.40
2023-12-12T00:35:18.878Z,100047.20
2023-12-12T00:36:50.645Z,100045.40
2023-12-12T00:38:29.421Z,100044.20
2023-12-12T00:40:01.291Z,100044.60
2023-12-12T00:41:34.430Z,100037.60
2023-12-12T00:43:06.475Z,100039.00
2023-12-12T00:44:38.332Z,100035.20
2023-12-12T00:46:11.654Z,100037.40
2023-12-12T00:47:43.817Z,100039.80
2023-12-12T00:49:15.764Z,100043.60
2023-12-12T00:50:50.141Z,100039.60
2023-12-12T00:52:21.890Z,100042.40
2023-12-12T00:53:53.734Z,100045.80
2023-12-12T00:55:25.491Z,100042.60
2023-12-12T00:56:57.334Z,100048.40
2023-12-12T00:58:29.280Z,100048.20
2023-12-12T01:00:01.164Z,100048.80
2023-12-12T01:01:32.969Z,100050.20
2023-12-12T01:03:04.858Z,100049.00
2023-12-12T01:04:36.745Z,100050.60
2023-12-12T01:06:09.441Z,100047.80
2023-12-12T01:07:41.523Z,100047.60
2023-12-12T01:09:13.329Z,100047.80
2023-12-12T01:10:45.103Z,100047.60
2023-12-12T01:12:16.849Z,100046.60
2023-12-12T01:13:49.635Z,100046.00
2023-12-12T01:15:21.508Z,100044.00
2023-12-12T01:16:53.222Z,100044.00
2023-12-12T01:18:25.017Z,100039.80
2023-12-12T01:19:57.178Z,100037.20
2023-12-12T01:21:29.049Z,100037.20
2023-12-12T01:23:00.776Z,100035.60
2023-12-12T01:24:32.600Z,100037.20
2023-12-12T01:26:04.567Z,100039.60
2023-12-12T01:27:36.342Z,100036.40
2023-12-12T01:29:08.095Z,100039.40
2023-12-12T01:30:40.242Z,100042.20
2023-12-12T01:32:12.062Z,100040.80
2023-12-12T01:33:45.222Z,100041.40
2023-12-12T01:35:17.205Z,100041.00
2023-12-12T01:36:51.829Z,100045.00
2023-12-12T01:38:23.621Z,100042.60
2023-12-12T01:39:55.416Z,100045.80
2023-12-12T01:41:27.334Z,100049.60
2023-12-12T01:43:07.223Z,100049.20
2023-12-12T01:44:39.116Z,100049.80
2023-12-12T01:46:17.902Z,100053.40
2023-12-12T01:47:49.812Z,100052.60
2023-12-12T01:49:22.000Z,100051.40
2023-12-12T01:50:54.629Z,100049.40
2023-12-12T01:52:27.204Z,100049.60
2023-12-12T01:54:02.944Z,100048.60
2023-12-12T01:55:37.865Z,100052.00
2023-12-12T01:57:09.881Z,100051.20
2023-12-12T01:58:47.225Z,100050.40
2023-12-12T02:00:19.223Z,100047.20
2023-12-12T02:01:51.201Z,100045.80
2023-12-12T02:03:25.423Z,100043.80
2023-12-12T02:04:57.432Z,100036.20
2023-12-12T02:06:29.856Z,100035.60
2023-12-12T02:08:01.633Z,100030.80
2023-12-12T02:09:33.549Z,100028.80
2023-12-12T02:11:05.476Z,100031.60
2023-12-12T02:12:37.213Z,100030.20
2023-12-12T02:14:10.689Z,100028.60
2023-12-12T02:15:42.464Z,100032.20
2023-12-12T02:17:14.307Z,100027.40
2023-12-12T02:18:46.115Z,100027.40
2023-12-12T02:20:18.067Z,100027.00
2023-12-12T02:21:49.934Z,100021.60
2023-12-12T02:23:21.728Z,100022.60
2023-12-12T02:24:53.917Z,100025.40
2023-12-12T02:26:26.089Z,100025.40
2023-12-12T02:28:01.140Z,100025.40
2023-12-12T02:29:33.889Z,100022.20
2023-12-12T02:31:05.808Z,100023.60
2023-12-12T02:32:37.648Z,100022.00
2023-12-12T02:34:09.529Z,100021.80
2023-12-12T02:35:41.479Z,100022.80
2023-12-12T02:37:13.303Z,100024.20
2023-12-12T02:38:45.143Z,100026.80
2023-12-12T02:40:17.180Z,100031.80
2023-12-12T02:41:48.994Z,100030.40
2023-12-12T02:43:20.963Z,100031.40
2023-12-12T02:44:52.733Z,100032.20
2023-12-12T02:46:24.507Z,100032.40
2023-12-12T02:47:56.363Z,100037.00
2023-12-12T02:49:28.176Z,100038.40
2023-12-12T02:51:00.047Z,100035.20
2023-12-12T02:52:32.043Z,100032.80
2023-12-12T02:54:03.872Z,100036.20
2023-12-12T02:55:35.582Z,100037.80
2023-12-12T02:57:08.362Z,100040.60
2023-12-12T02:58:40.138Z,100032.40
2023-12-12T03:00:12.344Z,100033.40
2023-12-12T03:01:44.194Z,100033.80
2023-12-12T03:03:15.961Z,100029.20
2023-12-12T03:04:48.226Z,100027.20
2023-12-12T03:06:19.987Z,100028.40
2023-12-12T03:07:51.681Z,100031.40
2023-12-12T03:09:23.394Z,100029.60
2023-12-12T03:10:55.165Z,100031.20
2023-12-12T03:12:26.927Z,100030.00
2023-12-12T03:13:58.650Z,100027.60
2023-12-12T03:15:30.394Z,100030.60
2023-12-12T03:17:02.093Z,100031.60
2023-12-12T03:18:33.888Z,100034.20
2023-12-12T03:20:06.787Z,100031.60
2023-12-12T03:21:38.555Z,100029.80
2023-12-12T03:23:10.314Z,100030.60
2023-12-12T03:24:42.065Z,100028.40
2023-12-12T03:26:14.138Z,100028.20
2023-12-12T03:27:46.988Z,100032.20
2023-12-12T03:29:18.820Z,100033.00
2023-12-12T03:30:50.611Z,100036.60
2023-12-12T03:32:22.486Z,100034.40
2023-12-12T03:33:54.307Z,100033.40
2023-12-12T03:35:26.525Z,100031.20
2023-12-12T03:36:58.331Z,100036.20
2023-12-12T03:38:30.101Z,100036.20
2023-12-12T03:40:03.024Z,100038.80
2023-12-12T03:41:34.784Z,100035.80
2023-12-12T03:43:06.518Z,100031.40
2023-12-12T03:44:38.316Z,100033.00
2023-12-12T03:46:14.507Z,100030.00
2023-12-12T03:47:46.307Z,100025.80
2023-12-12T03:49:18.171Z,100022.20
2023-12-12T03:50:50.920Z,100020.80
2023-12-12T03:52:22.742Z,100018.60
2023-12-12T03:53:54.579Z,100016.80
2023-12-12T03:55:26.469Z,100016.00
2023-12-12T03:56:58.286Z,100011.20
2023-12-12T03:58:30.492Z,100011.80
2023-12-12T04:00:04.563Z,100008.20
2023-12-12T04:01:49.849Z,100004.60
2023-12-12T04:03:22.405Z,100003.80
2023-12-12T04:04:54.192Z,99997.80
2023-12-12T04:06:25.896Z,100000.00
2023-12-12T04:07:57.672Z,99995.80
2023-12-12T04:09:29.358Z,99992.20
2023-12-12T04:11:01.075Z,99991.60
2023-12-12T04:12:32.767Z,99991.80
2023-12-12T04:14:04.487Z,99993.80
2023-12-12T04:15:36.203Z,99996.80
2023-12-12T04:17:08.604Z,99994.20
2023-12-12T04:18:40.368Z,99991.00
2023-12-12T04:20:12.675Z,99994.20
2023-12-12T04:21:45.150Z,99998.00
2023-12-12T04:23:16.889Z,99998.40
2023-12-12T04:24:49.267Z,99991.80
2023-12-12T04:26:20.995Z,99988.40
2023-12-12T04:27:52.786Z,99986.00
2023-12-12T04:29:24.525Z,99981.40
2023-12-12T04:30:56.298Z,99981.00
2023-12-12T04:32:28.150Z,99983.40
2023-12-12T04:33:59.984Z,99975.00
2023-12-12T04:35:31.735Z,99975.80
2023-12-12T04:37:03.943Z,99971.20
2023-12-12T04:38:36.884Z,99972.20
2023-12-12T04:40:09.122Z,99970.80
2023-12-12T04:41:41.145Z,99968.40
2023-12-12T04:43:12.869Z,99975.40
2023-12-12T04:44:45.345Z,99968.80
2023-12-12T04:46:21.380Z,99969.40
2023-12-12T04:47:53.351Z,99967.80
2023-12-12T04:49:25.446Z,99965.40
2023-12-12T04:51:03.124Z,99963.40
2023-12-12T04:52:34.920Z,99963.60
2023-12-12T04:54:06.700Z,99962.40
2023-12-12T04:55:38.716Z,99962.40
2023-12-12T04:57:10.524Z,99957.80
2023-12-12T04:58:42.284Z,99958.80
2023-12-12T05:00:15.291Z,99960.60
2023-12-12T05:01:47.112Z,99958.00
2023-12-12T05:03:18.923Z,99958.80
2023-12-12T05:04:50.715Z,99958.20
2023-12-12T05:06:22.508Z,99958.80
2023-12-12T05:07:54.404Z,99952.80
2023-12-12T05:09:26.174Z,99953.60
2023-12-12T05:10:58.347Z,99949.80
2023-12-12T05:12:31.528Z,99953.40
2023-12-12T05:14:08.163Z,99953.80
2023-12-12T05:15:39.934Z,99951.40
2023-12-12T05:17:11.831Z,99951.80
2023-12-12T05:18:43.973Z,99953.60
2023-12-12T05:20:16.143Z,99953.40
2023-12-12T05:21:50.591Z,99955.60
2023-12-12T05:23:22.444Z,99956.00
2023-12-12T05:24:54.200Z,99954.60
2023-12-12T05:26:25.925Z,99949.20
2023-12-12T05:27:57.661Z,99948.20
2023-12-12T05:29:29.462Z,99946.00
2023-12-12T05:31:01.429Z,99946.40
2023-12-12T05:32:33.395Z,99947.00
2023-12-12T05:34:06.013Z,99946.00
2023-12-12T05:35:37.784Z,99944.00
2023-12-12T05:37:12.193Z,99939.20
2023-12-12T05:38:43.947Z,99944.60
2023-12-12T05:40:15.925Z,99940.00
2023-12-12T05:41:49.663Z,99940.60
2023-12-12T05:43:21.957Z,99938.20
2023-12-12T05:44:53.694Z,99937.20
2023-12-12T05:46:25.436Z,99940.20
2023-12-12T05:47:57.407Z,99939.00
2023-12-12T05:49:29.580Z,99934.60
2023-12-12T05:51:01.412Z,99932.60
2023-12-12T05:52:33.354Z,99930.40
2023-12-12T05:54:05.356Z,99931.20
2023-12-12T05:55:37.204Z,99929.20
2023-12-12T05:57:12.111Z,99931.60
2023-12-12T05:58:43.856Z,99933.40
2023-12-12T06:00:16.462Z,99931.20
2023-12-12T06:01:48.364Z,99934.80
2023-12-12T06:03:20.676Z,99931.40
2023-12-12T06:04:52.603Z,99936.00
2023-12-12T06:06:24.395Z,99941.20
2023-12-12T06:07:56.121Z,99944.20
2023-12-12T06:09:27.859Z,99941.00
2023-12-12T06:10:59.710Z,99944.40
2023-12-12T06:12:32.338Z,99942.80
2023-12-12T06:14:05.035Z,99934.60
2023-12-12T06:15:36.862Z,99935.00
2023-12-12T06:17:08.615Z,99935.20
2023-12-12T06:18:40.883Z,99934.60
2023-12-12T06:20:14.364Z,99933.80
2023-12-12T06:21:47.773Z,99927.20
2023-12-12T06:23:19.493Z,99930.80
2023-12-12T06:24:52.651Z,99933.80
2023-12-12T06:26:24.455Z,99935.60
2023-12-12T06:27:57.341Z,99931.60
2023-12-12T06:29:29.189Z,99933.80
2023-12-12T06:31:01.172Z,99931.20
2023-12-12T06:32:33.192Z,99930.60
2023-12-12T06:34:05.210Z,99930.20
2023-12-12T06:35:37.141Z,99927.40
2023-12-12T06:37:09.040Z,99925.60
2023-12-12T06:38:40.845Z,99923.80
2023-12-12T06:40:14.598Z,99917.40
2023-12-12T06:41:46.642Z,99914.00
2023-12-12T06:43:19.056Z,99911.80
2023-12-12T06:44:50.818Z,99908.20
2023-12-12T06:46:22.750Z,99905.60
2023-12-12T06:47:54.571Z,99905.80
2023-12-12T06:49:26.385Z,99902.20
2023-12-12T06:50:58.286Z,99907.40
2023-12-12T06:52:30.150Z,99907.20
2023-12-12T06:54:02.025Z,99902.80
2023-12-12T06:55:33.864Z,99905.40
2023-12-12T06:57:06.079Z,99904.60
2023-12-12T06:58:37.863Z,99902.60
2023-12-12T07:00:10.484Z,99903.40
2023-12-12T07:01:42.313Z,99905.40
2023-12-12T07:03:14.195Z,99905.40
2023-12-12T07:04:46.091Z,99906.00
2023-12-12T07:06:21.274Z,99908.20
2023-12-12T07:07:53.082Z,99911.80
2023-12-12T07:09:24.840Z,99917.60
2023-12-12T07:10:56.638Z,99917.40
2023-12-12T07:12:28.353Z,99915.20
2023-12-12T07:14:00.091Z,99914.60
2023-12-12T07:15:32.006Z,99916.80
2023-12-12T07:17:04.229Z,99913.20
2023-12-12T07:18:36.136Z,99915.00
2023-12-12T07:20:08.589Z,99913.00
2023-12-12T07:21:43.629Z,99918.20
2023-12-12T07:23:17.460Z,99916.00
2023-12-12T07:24:49.968Z,99911.60
2023-12-12T07:26:25.605Z,99911.20
2023-12-12T07:27:58.149Z,99913.60
2023-12-12T07:29:29.918Z,99908.20
2023-12-12T07:31:03.898Z,99904.20
2023-12-12T07:32:35.810Z,99901.00
2023-12-12T07:34:07.740Z,99901.40
2023-12-12T07:35:39.698Z,99906.20
2023-12-12T07:37:11.652Z,99905.00
2023-12-12T07:38:43.886Z,99901.00
2023-12-12T07:40:15.776Z,99903.00
2023-12-12T07:41:48.037Z,99904.00
2023-12-12T07:43:19.846Z,99904.40
2023-12-12T07:44:51.626Z,99905.40
2023-12-12T07:46:23.969Z,99908.20
2023-12-12T07:47:55.888Z,99903.40
2023-12-12T07:49:28.892Z,99906.40
2023-12-12T07:51:00.709Z,99902.20
2023-12-12T07:52:34.076Z,99898.60
2023-12-12T07:54:07.294Z,99898.80
2023-12-12T07:57:13.192Z,99890.40
2023-12-12T07:58:45.142Z,99890.80
2023-12-12T08:00:17.516Z,99888.80
2023-12-12T08:01:49.624Z,99884.80
2023-12-12T08:03:22.809Z,99882.60
2023-12-12T08:04:54.690Z,99882.40
2023-12-12T08:06:28.297Z,99876.40
2023-12-12T08:08:05.175Z,99874.20
2023-12-12T08:09:37.874Z,99872.20
2023-12-12T08:11:14.714Z,99870.60
2023-12-12T08:12:46.554Z,99871.40
2023-12-12T08:14:19.738Z,99875.00
2023-12-12T08:15:51.836Z,99869.60
2023-12-12T08:17:23.823Z,99858.00
2023-12-12T08:18:56.097Z,99857.80
2023-12-12T08:20:28.415Z,99857.40
2023-12-12T08:22:00.258Z,99854.00
2023-12-12T08:23:34.593Z,99861.00
2023-12-12T08:25:09.031Z,99858.60
2023-12-12T08:26:43.246Z,99856.20
2023-12-12T08:28:15.177Z,99857.40
2023-12-12T08:29:49.568Z,99860.00
2023-12-12T08:31:21.754Z,99860.80
2023-12-12T08:32:53.907Z,99855.60
2023-12-12T08:34:25.976Z,99854.80
2023-12-12T08:36:02.148Z,99854.20
2023-12-12T08:37:34.677Z,99849.80
2023-12-12T08:39:08.623Z,99852.80
2023-12-12T08:40:41.350Z,99847.40
2023-12-12T08:42:15.337Z,99844.60
2023-12-12T08:43:47.335Z,99851.40
2023-12-12T08:45:19.325Z,99844.20
2023-12-12T08:46:51.643Z,99841.40
2023-12-12T08:48:24.950Z,99840.60
2023-12-12T08:49:57.151Z,99839.00
2023-12-12T08:51:29.330Z,99838.00
2023-12-12T08:53:01.274Z,99835.00
2023-12-12T08:54:37.314Z,99836.40
2023-12-12T08:56:17.455Z,99835.00
2023-12-12T08:57:49.377Z,99835.00
2023-12-12T08:59:25.328Z,99834.60
2023-12-12T09:00:57.395Z,99835.00
2023-12-12T09:02:29.259Z,99838.20
2023-12-12T09:04:01.275Z,99840.20
2023-12-12T09:05:33.215Z,99840.00
2023-12-12T09:07:05.285Z,99838.40
2023-12-12T09:08:37.306Z,99834.40
2023-12-12T09:10:09.771Z,99840.00
2023-12-12T09:11:41.859Z,99831.80
2023-12-12T09:13:13.877Z,99829.40
2023-12-12T09:14:46.247Z,99827.20
2023-12-12T09:16:18.055Z,99822.20
2023-12-12T09:18:05.353Z,99822.60
2023-12-12T09:19:44.129Z,99815.20
2023-12-12T09:21:18.485Z,99810.60
2023-12-12T09:22:50.833Z,99810.00
2023-12-12T09:24:22.854Z,99808.80
2023-12-12T09:25:56.257Z,99812.60
2023-12-12T09:27:29.813Z,99817.60
2023-12-12T09:29:02.139Z,99814.40
2023-12-12T09:30:34.142Z,99809.20
2023-12-12T09:32:06.291Z,99806.40
2023-12-12T09:33:39.313Z,99799.80
2023-12-12T09:35:12.222Z,99798.40
2023-12-12T09:36:44.074Z,99795.40
2023-12-12T09:38:16.198Z,99794.40
2023-12-12T09:39:48.075Z,99791.80
2023-12-12T09:41:24.709Z,99788.00
2023-12-12T09:42:59.083Z,99790.40
2023-12-12T09:44:33.126Z,99787.60
2023-12-12T09:46:07.973Z,99786.80
2023-12-12T09:47:43.471Z,99788.00
2023-12-12T09:49:16.229Z,99779.80
2023-12-12T09:50:48.705Z,99781.80
2023-12-12T09:52:22.134Z,99775.80
2023-12-12T09:53:58.069Z,99773.20
2023-12-12T09:55:31.279Z,99765.80
2023-12-12T09:57:06.560Z,99763.40
2023-12-12T09:58:38.495Z,99765.80
2023-12-12T10:00:11.037Z,99765.60
2023-12-12T10:01:48.474Z,99759.40
2023-12-12T10:03:22.351Z,99752.40
2023-12-12T10:04:54.884Z,99750.80
2023-12-12T10:06:32.884Z,99740.40
2023-12-12T10:08:14.012Z,99736.80
2023-12-12T10:09:49.154Z,99733.00
2023-12-12T10:11:20.945Z,99725.20
2023-12-12T10:12:52.768Z,99720.20
2023-12-12T10:14:41.417Z,99717.60
2023-12-12T10:16:14.680Z,99713.20
2023-12-12T10:17:46.678Z,99710.20
2023-12-12T10:19:18.612Z,99712.60
2023-12-12T10:20:50.966Z,99714.20
2023-12-12T10:22:22.752Z,99708.20
2023-12-12T10:23:58.329Z,99708.60
2023-12-12T10:25:33.465Z,99705.40
2023-12-12T10:27:05.820Z,99700.00
2023-12-12T10:28:37.837Z,99703.20
2023-12-12T10:30:14.551Z,99697.40
2023-12-12T10:31:48.316Z,99696.20
2023-12-12T10:33:20.298Z,99692.00
2023-12-12T10:34:52.346Z,99694.60
2023-12-12T10:36:26.281Z,99684.20
2023-12-12T10:38:07.660Z,99685.20
2023-12-12T10:39:44.752Z,99678.40
2023-12-12T10:41:25.512Z,99678.20
2023-12-12T10:43:01.080Z,99670.80
2023-12-12T10:44:34.196Z,99671.60
2023-12-12T10:46:07.329Z,99664.80
2023-12-12T10:47:52.632Z,99658.80
2023-12-12T10:49:32.933Z,99657.80
2023-12-12T10:51:06.479Z,99652.40
2023-12-12T10:52:40.405Z,99650.40
2023-12-12T10:54:12.890Z,99650.40
2023-12-12T10:55:45.276Z,99648.80
2023-12-12T10:57:19.494Z,99642.40
2023-12-12T10:58:52.760Z,99639.00
2023-12-12T11:00:26.337Z,99640.20
2023-12-12T11:01:59.243Z,99641.00
2023-12-12T11:03:32.298Z,99638.40
2023-12-12T11:05:05.741Z,99633.00
2023-12-12T11:06:38.432Z,99630.40
2023-12-12T11:08:11.836Z,99625.00
2023-12-12T11:09:44.629Z,99622.40
2023-12-12T11:11:22.482Z,99618.00
2023-12-12T11:13:03.298Z,99614.60
2023-12-12T11:14:36.807Z,99615.60
2023-12-12T11:16:12.373Z,99616.00
2023-12-12T11:17:44.546Z,99612.40
2023-12-12T11:19:17.994Z,99608.00
2023-12-12T11:20:50.432Z,99601.40
2023-12-12T11:23:02.203Z,99602.80
2023-12-12T11:25:10.151Z,99605.40
2023-12-12T11:26:45.508Z,99600.80
2023-12-12T11:28:17.617Z,99599.20
2023-12-12T11:29:49.457Z,99601.60
2023-12-12T11:31:27.991Z,99599.40
2023-12-12T11:33:02.103Z,99597.40
2023-12-12T11:34:39.001Z,99592.80
2023-12-12T11:36:27.651Z,99594.80
2023-12-12T11:38:26.083Z,99595.20
2023-12-12T11:40:01.454Z,99591.00
2023-12-12T11:41:36.707Z,99590.20
2023-12-12T11:43:26.195Z,99591.80
2023-12-12T11:45:00.193Z,99587.80
2023-12-12T11:46:33.110Z,99581.40
2023-12-12T11:48:09.254Z,99578.40
2023-12-12T11:49:41.333Z,99578.60
2023-12-12T11:51:35.123Z,99570.60
2023-12-12T11:53:06.950Z,99566.80
2023-12-12T11:54:40.016Z,99564.80
2023-12-12T11:56:17.982Z,99559.60
2023-12-12T11:57:50.674Z,99556.20
2023-12-12T11:59:25.088Z,99554.80
2023-12-12T12:00:57.250Z,99551.60
2023-12-12T12:02:29.479Z,99558.80
2023-12-12T12:04:01.622Z,99550.00
2023-12-12T12:05:33.950Z,99548.60
2023-12-12T12:07:07.221Z,99546.40
2023-12-12T12:08:39.272Z,99544.60
2023-12-12T12:10:11.588Z,99541.60
2023-12-12T12:11:50.233Z,99536.60
2023-12-12T12:13:22.081Z,99539.00
2023-12-12T12:15:04.633Z,99536.80
2023-12-12T12:16:37.232Z,99535.60
2023-12-12T12:18:29.706Z,99531.60
2023-12-12T12:20:01.906Z,99527.20
2023-12-12T12:21:34.183Z,99523.80
2023-12-12T12:23:08.646Z,99518.80
2023-12-12T12:24:47.903Z,99515.80
2023-12-12T12:26:22.595Z,99515.00
2023-12-12T12:28:08.762Z,99511.40
2023-12-12T12:29:41.675Z,99510.60
2023-12-12T12:31:13.685Z,99509.60
2023-12-12T12:33:03.789Z,99504.20
2023-12-12T12:34:36.947Z,99505.40
2023-12-12T12:36:10.476Z,99503.60
2023-12-12T12:37:42.606Z,99501.60
2023-12-12T12:39:18.717Z,99501.20
2023-12-12T12:40:50.644Z,99496.20
2023-12-12T12:42:22.955Z,99499.80
2023-12-12T12:43:56.381Z,99493.60
2023-12-12T12:45:28.872Z,99491.80
2023-12-12T12:47:00.900Z,99490.00
2023-12-12T12:48:43.983Z,99483.40
2023-12-12T12:52:24.636Z,99475.40
2023-12-12T12:53:56.679Z,99473.80
2023-12-12T12:55:28.772Z,99471.60
2023-12-12T12:57:00.811Z,99472.60
2023-12-12T12:58:35.031Z,99468.80
2023-12-12T13:00:13.695Z,99462.80
2023-12-12T13:01:46.578Z,99465.40
2023-12-12T13:03:18.766Z,99464.80
2023-12-12T13:04:50.941Z,99456.60
2023-12-12T13:06:23.358Z,99455.60
2023-12-12T13:07:55.444Z,99455.00
2023-12-12T13:09:28.038Z,99444.80
2023-12-12T13:11:02.849Z,99453.80
2023-12-12T13:12:34.783Z,99454.80
2023-12-12T13:14:07.465Z,99452.00
2023-12-12T13:15:39.423Z,99452.20
2023-12-12T13:17:12.998Z,99450.40
2023-12-12T13:18:44.830Z,99448.40
2023-12-12T13:20:17.156Z,99445.00
2023-12-12T13:21:52.143Z,99443.20
2023-12-12T13:23:24.854Z,99447.20
2023-12-12T13:24:59.212Z,99445.20
2023-12-12T13:26:34.947Z,99450.60
2023-12-12T13:28:06.879Z,99443.80
2023-12-12T13:29:38.813Z,99448.60
2023-12-12T13:31:10.798Z,99449.00
2023-12-12T13:32:48.886Z,99448.80
2023-12-12T13:34:21.385Z,99449.20
2023-12-12T13:35:53.405Z,99449.40
2023-12-12T13:37:27.636Z,99448.60
2023-12-12T13:38:59.589Z,99445.40
2023-12-12T13:40:34.790Z,99441.80
2023-12-12T13:42:09.425Z,99437.80
2023-12-12T13:43:42.655Z,99436.40
2023-12-12T13:45:15.259Z,99437.20
2023-12-12T13:46:47.254Z,99432.00
2023-12-12T13:48:20.890Z,99433.40
2023-12-12T13:49:53.429Z,99430.00
2023-12-12T13:51:30.961Z,99428.60
2023-12-12T13:53:11.908Z,99426.00
2023-12-12T13:54:44.423Z,99415.20
2023-12-12T13:56:17.519Z,99408.40
2023-12-12T13:57:50.784Z,99400.80
2023-12-12T13:59:24.237Z,99394.00
2023-12-12T14:00:56.770Z,99392.40
2023-12-12T14:02:33.281Z,99395.60
2023-12-12T14:04:07.264Z,99391.60
2023-12-12T14:05:40.537Z,99388.80
2023-12-12T14:07:12.781Z,99388.40
2023-12-12T14:08:44.837Z,99393.60
2023-12-12T14:10:17.069Z,99392.40
2023-12-12T14:11:49.277Z,99392.20
2023-12-12T14:13:21.514Z,99392.60
2023-12-12T14:14:57.109Z,99391.60
2023-12-12T14:16:32.548Z,99388.40
2023-12-12T14:18:07.988Z,99392.20
2023-12-12T14:19:41.383Z,99393.80
2023-12-12T14:21:16.136Z,99395.40
2023-12-12T14:22:57.874Z,99396.80
2023-12-12T14:24:37.319Z,99392.20
2023-12-12T14:26:13.957Z,99390.00
2023-12-12T14:27:45.787Z,99383.40
2023-12-12T14:29:19.072Z,99377.60
2023-12-12T14:30:51.305Z,99374.80
2023-12-12T14:32:23.367Z,99370.00
2023-12-12T14:33:58.240Z,99365.40
2023-12-12T14:35:30.894Z,99363.20
2023-12-12T14:37:03.764Z,99362.00
2023-12-12T14:38:37.843Z,99360.00
2023-12-12T14:40:12.326Z,99364.00
2023-12-12T14:41:44.278Z,99358.00
2023-12-12T14:43:16.348Z,99358.20
2023-12-12T14:44:48.553Z,99352.60
2023-12-12T14:46:20.873Z,99355.40
2023-12-12T14:47:53.279Z,99352.80
2023-12-12T14:49:26.594Z,99350.80
2023-12-12T14:51:01.626Z,99356.40
2023-12-12T14:52:34.354Z,99354.00
2023-12-12T14:54:06.970Z,99356.80
2023-12-12T14:55:39.048Z,99354.80
2023-12-12T14:57:17.225Z,99352.00
2023-12-12T14:58:52.800Z,99338.20
2023-12-12T15:00:27.428Z,99340.80
2023-12-12T15:02:00.015Z,99342.40
2023-12-12T15:03:32.023Z,99334.80
2023-12-12T15:05:07.618Z,99332.00
2023-12-12T15:06:42.015Z,99330.80
2023-12-12T15:08:16.742Z,99325.40
2023-12-12T15:09:49.521Z,99323.40
2023-12-12T15:11:21.406Z,99327.20
2023-12-12T15:12:53.642Z,99328.60
2023-12-12T15:14:26.138Z,99336.40
2023-12-12T15:15:59.825Z,99349.40
2023-12-12T15:17:32.174Z,99344.00
2023-12-12T15:19:07.335Z,99319.40
2023-12-12T15:20:39.245Z,99329.00
2023-12-12T15:22:11.229Z,99326.00
2023-12-12T15:23:43.772Z,99326.20
2023-12-12T15:25:21.505Z,99325.00
2023-12-12T15:27:01.010Z,99320.80
2023-12-12T15:28:35.468Z,99311.20
2023-12-12T15:30:08.608Z,99311.80
2023-12-12T15:31:41.105Z,99314.00
2023-12-12T15:33:13.069Z,99305.40
2023-12-12T15:34:45.127Z,99306.60
2023-12-12T15:36:19.964Z,99305.40
2023-12-12T15:37:52.017Z,99297.40
2023-12-12T15:39:25.219Z,99292.00
2023-12-12T15:40:58.462Z,99295.60
2023-12-12T15:42:30.621Z,99292.00
2023-12-12T15:44:02.677Z,99286.80
2023-12-12T15:45:34.525Z,99281.60
2023-12-12T15:47:06.448Z,99279.40
2023-12-12T15:48:38.988Z,99281.40
2023-12-12T15:50:12.075Z,99274.40
2023-12-12T15:51:44.956Z,99269.00
2023-12-12T15:53:16.745Z,99265.00
2023-12-12T15:54:48.554Z,99263.20
2023-12-12T15:56:23.257Z,99257.40
2023-12-12T15:57:55.373Z,99252.00
2023-12-12T15:59:27.345Z,99253.60
2023-12-12T16:00:59.233Z,99253.60
2023-12-12T16:02:33.306Z,99250.60
2023-12-12T16:04:13.700Z,99244.20
2023-12-12T16:05:45.828Z,99244.20
2023-12-12T16:07:17.763Z,99237.40
2023-12-12T16:08:51.330Z,99241.20
2023-12-12T16:10:25.345Z,99238.80
2023-12-12T16:11:57.872Z,99233.20
2023-12-12T16:13:30.759Z,99231.00
2023-12-12T16:15:07.426Z,99227.00
2023-12-12T16:16:39.604Z,99228.40
2023-12-12T16:18:12.387Z,99221.00
2023-12-12T16:19:44.462Z,99223.60
2023-12-12T16:21:16.701Z,99218.80
2023-12-12T16:22:49.964Z,99222.80
2023-12-12T16:24:22.775Z,99219.80
2023-12-12T16:25:54.644Z,99216.80
2023-12-12T16:27:26.485Z,99215.60
2023-12-12T16:28:58.313Z,99212.60
2023-12-12T16:30:32.398Z,99207.80
2023-12-12T16:32:05.328Z,99206.40
2023-12-12T16:33:37.321Z,99206.80
2023-12-12T16:35:10.028Z,99202.20
2023-12-12T16:36:47.603Z,99206.40
2023-12-12T16:38:23.134Z,99207.80
2023-12-12T16:39:58.963Z,99199.20
2023-12-12T16:41:30.947Z,99195.00
2023-12-12T16:43:03.805Z,99191.40
2023-12-12T16:44:36.252Z,99189.20
2023-12-12T16:46:08.133Z,99186.20
2023-12-12T16:47:47.322Z,99185.40
2023-12-12T16:49:20.921Z,99176.00
2023-12-12T16:50:53.046Z,99177.00
2023-12-12T16:52:25.034Z,99178.40
2023-12-12T16:53:57.202Z,99172.80
2023-12-12T16:55:30.134Z,99171.60
2023-12-12T16:57:02.817Z,99172.80
2023-12-12T16:58:37.927Z,99170.20
2023-12-12T17:00:12.446Z,99164.00
2023-12-12T17:01:44.713Z,99161.20
2023-12-12T17:03:17.739Z,99158.80
2023-12-12T17:04:50.267Z,99160.20
2023-12-12T17:06:22.775Z,99157.80
2023-12-12T17:07:54.729Z,99153.00
2023-12-12T17:09:27.291Z,99151.60
2023-12-12T17:11:00.657Z,99152.60
2023-12-12T17:12:34.026Z,99147.20
2023-12-12T17:14:06.220Z,99146.40
2023-12-12T17:15:38.230Z,99142.80
2023-12-12T17:17:10.213Z,99146.40
2023-12-12T17:18:45.077Z,99144.00
2023-12-12T17:20:17.210Z,99149.20
2023-12-12T17:21:50.048Z,99147.20
2023-12-12T17:23:21.867Z,99143.00
2023-12-12T17:24:54.156Z,99141.60
2023-12-12T17:26:26.049Z,99141.20
2023-12-12T17:27:59.298Z,99138.00
2023-12-12T17:29:34.049Z,99135.20
2023-12-12T17:31:07.309Z,99141.40
2023-12-12T17:32:40.224Z,99136.20
2023-12-12T17:34:13.174Z,99135.60
2023-12-12T17:35:45.418Z,99135.40
2023-12-12T17:37:17.606Z,99141.00
2023-12-12T17:38:50.270Z,99142.00
2023-12-12T17:40:25.280Z,99142.40
2023-12-12T17:41:57.332Z,99138.00
2023-12-12T17:43:34.772Z,99140.80
2023-12-12T17:45:09.752Z,99137.40
2023-12-12T17:46:45.398Z,99141.00
2023-12-12T17:48:17.595Z,99138.20
2023-12-12T17:49:52.986Z,99134.60
2023-12-12T17:51:26.232Z,99135.20
2023-12-12T17:52:58.892Z,99133.00
2023-12-12T17:54:34.100Z,99123.60
2023-12-12T17:56:08.373Z,99127.60
2023-12-12T17:57:40.693Z,99124.40
2023-12-12T17:59:14.457Z,99124.60
2023-12-12T18:00:46.424Z,99119.40
2023-12-12T18:02:18.269Z,99115.80
2023-12-12T18:03:53.297Z,99114.80
2023-12-12T18:05:30.986Z,99112.20
2023-12-12T18:07:04.748Z,99112.80
2023-12-12T18:08:42.142Z,99110.60
2023-12-12T18:10:14.568Z,99102.80
2023-12-12T18:11:47.886Z,99106.00
2023-12-12T18:13:21.123Z,99106.60